Preview of NWS' New Version of Forecast
This preview is not operational and should not be used for support decisions.

Terminal Aerodrome Forecast (TAF)

Issued by National Weather Service (NWS)

                            
000
FTUS42 KKEY 221747
TAFMTH
TAF
KMTH 221747Z 2218/2318 11013G23KT P6SM SCT040 BKN050
     FM230200 12014G22KT P6SM SCT035 SCT050=